Hauptseite
METAR-TAF:

METAR-TAF

Flughäfen :

Fairford, England

RAF Fairford

Breite: 51-41N, Länge: 001-47W, Höhe: 87 m

Beobachtung

Neuester Wetterbericht von vor 1 Stunde und 8 Minuten, um 08:56 UTC
Wind 10 kt aus Ost/Nordost
Temperatur 0°C
Luftfeuchtigkeit 69%
Luftdruck 1027 hPa
Himmel klar

METAR: EGVA 250856Z AUTO 07010KT M M CLR 00/M05 A3033 RMK AO2 SLP279 T10021046 52011 RVRNO $

Zeit: 10:04 (10:04 UTC)


TAF: fehlend

Wetterbeobachtungen und Prognosen von mehr als 4000 Flughäfen (METAR und TAF Bericht).

Die verfügbaren Stationen werden durch gelbe und rote Markierungen auf der Karte dargestellt.

Führen Sie die Maus auf sie, um den Namen der Station zu sehen.

Darauf klicken, um die Beobachtung von Wetterbeobachtungen und Prognosen zu sehen.

Um die Karte zu ändern : klicken Sie auf den grünen Tasten mit einem schwarzen Kreuz Zum Vergrößern, auf den grünen Button mit einem Gedankenstrich zu verkleinern, oder auf die grünen Pfeile für benachbarte Karten.


METAR-TAF: